aviador You're here:

KBWW Decoded Metar

in
Report Time2017-06-27 05:15:00
UTC Time2017-06-27 05:12:10
Flight Rules vfr VFR
Wind150° at 20 kt
W.Decomp.*RWY 13: 18.8 kt HW 6.8 kt RCW
W.Rank150° ranks 9
Current wind is above 150° avg. (12.0)
Visibility9999 m
Phenomena:N/A
Clouds:N/A
Expected CloudBase > 5,200 ft AGL from Temp-Dew spread
CeilingNone
Temp17°C
Dew Point04°C (42% RH)
AAT8.5°C
QNH1010 hPa
Raw Report
KBWW 270515Z AUTO 15020KT 10SM CLR 17/04 A2984 RMK AO2=

Extra information for KBWW:More info

Social comments